Kiester, Minnesota
Current Conditions -  °F | °C
As of 4:11 AM on Saturday 20 Dec 2014 (Local Time) from KAEL Reporting Station
Haze Haze  
Wind Chill: 22°   Ceiling: 300
Heat Index: 28°   Visibility: 0.75mi
Dew Point: 28°   Wind: 6mph
Humidity: 100%   Direction: 150°SSE
Pressure: 30.14"   Gusts: NA
Location:  43.54°N, 93.71°W
Report Text: KAEL 201011Z AUTO 15005KT 3/4SM BR OVC003 M02/M02 A3014 RMK AO2
Loading
Personal Weather Stations






























Interactive Weather Map New forecast layout! Learn more

10-Day Weather Forecast

Advertisements
Track Severe Weather on mobile